Main page
METAR-TAF:

METAR-TAF

Airports :

Roswell International Air Center

Roswell, New Mexico, United States

latitude: 33-18-29N, longitude: 104-30-28W, elevation: 3667 ft

Current weather observation

The report was made 57 minutes ago, at 06:51 UTC
Calm wind
Temperature 63°F
Humidity 72%
Pressure 30.11 in. Hg
Visibility: 10 miles
Clear sky

METAR: KROW 240651Z AUTO 00000KT 10SM CLR 17/12 A3011 RMK AO2 SLP137 T01670122 402890161

Time: 01:48 (07:48 UTC)

Forecast

The report was made 2 hours and 9 minutes ago, at 05:39 UTC
Forecast valid from 24 at 06 UTC to 25 at 06 UTC
Wind 9 mph from the South/Southeast
Visibility: 6 miles
Clear sky
From 24 at 1800 UTC
Wind 12 mph from the South/Southeast
Visibility: 6 miles
Clear sky

TAF: KROW 240539Z 2406/2506 16008KT P6SM SKC FM241800 16010KT P6SM SKC

Weather observations and forecasts of more than 4000 airports (METAR and TAF reports).

The available stations are represented by yellow and red dots on the map.

Hover mouse over dot to see the name of the station.

Then click to see weather observations and forecasts.

To change the map : click on the green buttons with a black cross to zoom in, on the green button with a dash to zoom out, or on the green arrows for adjacent maps.


METAR-TAF: